createdAt,value
2022-11-22T00:01:01.579Z,76.94
2022-11-22T00:06:04.094Z,76.79
2022-11-22T00:11:06.834Z,77.36
2022-11-22T00:16:09.437Z,77.21
2022-11-22T00:21:11.930Z,76.57
2022-11-22T00:26:14.419Z,76.52
2022-11-22T00:31:17.010Z,76.45
2022-11-22T00:36:19.439Z,75.85
2022-11-22T00:41:22.034Z,75.65
2022-11-22T00:46:24.997Z,75.99
2022-11-22T00:51:27.479Z,75.44
2022-11-22T00:56:29.987Z,75.36
2022-11-22T01:01:32.577Z,75.35
2022-11-22T01:06:35.239Z,75.26
2022-11-22T01:11:37.750Z,75.17
2022-11-22T01:16:40.502Z,75.18
2022-11-22T01:21:43.188Z,75.57
2022-11-22T01:26:45.796Z,75.79
2022-11-22T01:31:48.268Z,75.37
2022-11-22T01:36:50.706Z,75.16
2022-11-22T01:41:53.256Z,75.92
2022-11-22T01:46:55.724Z,75.74
2022-11-22T01:52:09.429Z,75.86
2022-11-22T01:57:16.656Z,75.86
2022-11-22T02:02:19.253Z,75.67
2022-11-22T02:07:30.468Z,76.23
2022-11-22T02:12:36.570Z,76.17
2022-11-22T02:17:39.124Z,76.08
2022-11-22T02:23:10.155Z,76.03
2022-11-22T02:28:14.241Z,76.04
2022-11-22T02:33:17.121Z,75.48
2022-11-22T02:38:26.282Z,76.06
2022-11-22T02:43:33.995Z,76.20
2022-11-22T02:48:44.943Z,76.34
2022-11-22T02:53:49.368Z,75.99
2022-11-22T02:58:51.888Z,76.77
2022-11-22T03:03:54.433Z,76.63
2022-11-22T03:08:57.380Z,76.62
2022-11-22T03:13:59.894Z,76.41
2022-11-22T03:19:02.625Z,76.51
2022-11-22T03:24:05.877Z,76.13
2022-11-22T03:29:08.463Z,75.27
2022-11-22T03:34:13.012Z,75.19
2022-11-22T03:39:15.576Z,74.94
2022-11-22T03:44:18.082Z,75.55
2022-11-22T03:49:20.625Z,75.20
2022-11-22T03:54:23.213Z,75.36
2022-11-22T03:59:25.802Z,75.35
2022-11-22T04:04:28.291Z,75.28
2022-11-22T04:09:31.160Z,75.73
2022-11-22T04:14:52.037Z,76.24
2022-11-22T04:20:13.148Z,76.14
2022-11-22T04:25:15.716Z,75.79
2022-11-22T04:30:20.869Z,76.05
2022-11-22T04:35:23.559Z,75.84
2022-11-22T04:40:26.031Z,75.68
2022-11-22T04:45:28.526Z,75.62
2022-11-22T04:50:50.335Z,75.97
2022-11-22T04:55:53.444Z,75.79
2022-11-22T05:00:56.043Z,75.85
2022-11-22T05:06:01.505Z,75.94
2022-11-22T05:11:03.995Z,76.36
2022-11-22T05:16:08.834Z,76.44
2022-11-22T05:21:13.850Z,76.16
2022-11-22T05:26:16.328Z,75.71
2022-11-22T05:31:23.565Z,76.09
2022-11-22T05:36:26.158Z,76.45
2022-11-22T05:41:28.737Z,75.83
2022-11-22T05:46:31.697Z,75.99
2022-11-22T05:51:35.265Z,75.81
2022-11-22T05:56:37.871Z,75.85
2022-11-22T06:01:40.838Z,75.81
2022-11-22T06:06:43.306Z,75.95
2022-11-22T06:11:45.772Z,75.62
2022-11-22T06:16:48.222Z,76.19
2022-11-22T06:21:50.765Z,76.19
2022-11-22T06:26:53.328Z,76.40
2022-11-22T06:31:58.983Z,76.39
2022-11-22T06:37:05.792Z,76.30
2022-11-22T06:42:08.371Z,76.46
2022-11-22T06:47:11.064Z,76.36
2022-11-22T06:52:13.610Z,76.35
2022-11-22T06:57:16.143Z,76.89
2022-11-22T07:02:18.602Z,77.30
2022-11-22T07:07:21.186Z,77.23
2022-11-22T07:12:23.658Z,77.27
2022-11-22T07:17:26.112Z,76.73
2022-11-22T07:22:29.449Z,77.05
2022-11-22T07:27:31.912Z,76.71
2022-11-22T07:32:34.381Z,76.83
2022-11-22T07:37:36.860Z,76.72
2022-11-22T07:42:39.445Z,76.82
2022-11-22T07:47:41.956Z,76.11
2022-11-22T07:52:44.452Z,76.24
2022-11-22T07:57:49.676Z,76.76
2022-11-22T08:02:52.135Z,76.34
2022-11-22T08:07:55.120Z,76.21
2022-11-22T08:13:00.824Z,76.17
2022-11-22T08:18:03.369Z,75.65
2022-11-22T08:23:05.920Z,75.59
2022-11-22T08:28:08.519Z,75.32
2022-11-22T08:33:10.966Z,75.34
2022-11-22T08:38:13.582Z,75.58
2022-11-22T08:43:16.224Z,75.78
2022-11-22T08:48:22.325Z,75.48
2022-11-22T08:53:26.151Z,75.69
2022-11-22T08:58:33.784Z,75.57
2022-11-22T09:03:37.018Z,75.61
2022-11-22T09:08:43.004Z,75.52
2022-11-22T09:13:48.119Z,76.07
2022-11-22T09:18:58.347Z,75.67
2022-11-22T09:24:00.874Z,75.36
2022-11-22T09:29:03.554Z,75.48
2022-11-22T09:34:07.200Z,75.22
2022-11-22T09:39:10.030Z,75.19
2022-11-22T09:44:30.714Z,75.28
2022-11-22T09:49:59.093Z,75.42
2022-11-22T09:55:09.665Z,75.19
2022-11-22T10:00:25.496Z,75.38
2022-11-22T10:05:50.774Z,75.56
2022-11-22T10:10:55.523Z,75.62
2022-11-22T10:16:19.364Z,76.30
2022-11-22T10:21:22.015Z,76.51
2022-11-22T10:26:35.029Z,77.09
2022-11-22T10:32:11.188Z,77.15
2022-11-22T10:37:38.662Z,77.42
2022-11-22T10:43:02.909Z,77.17
2022-11-22T10:48:23.513Z,77.35
2022-11-22T10:53:48.492Z,77.87
2022-11-22T10:58:59.371Z,78.49
2022-11-22T11:04:04.175Z,78.58
2022-11-22T11:15:04.659Z,79.22
2022-11-22T11:20:20.131Z,79.47
2022-11-22T11:25:34.685Z,79.01
2022-11-22T11:30:44.536Z,78.38
2022-11-22T11:35:47.854Z,78.31
2022-11-22T11:40:50.484Z,78.23
2022-11-22T11:45:53.014Z,78.41
2022-11-22T11:51:18.799Z,78.42
2022-11-22T11:56:32.150Z,78.09
2022-11-22T12:01:38.932Z,78.24
2022-11-22T12:06:41.673Z,77.55
2022-11-22T12:11:49.501Z,78.20
2022-11-22T12:16:57.740Z,77.68
2022-11-22T12:22:48.279Z,77.66
2022-11-22T12:27:47.527Z,77.30
2022-11-22T12:33:03.549Z,77.15
2022-11-22T12:38:43.647Z,76.81
2022-11-22T12:44:00.098Z,77.03
2022-11-22T12:49:15.898Z,76.93
2022-11-22T12:54:22.850Z,76.66
2022-11-22T12:59:38.271Z,76.77
2022-11-22T13:05:02.172Z,77.02
2022-11-22T13:10:17.495Z,76.93
2022-11-22T13:15:41.641Z,76.60
2022-11-22T13:21:27.780Z,76.48
2022-11-22T13:26:48.537Z,76.07
2022-11-22T13:32:12.993Z,76.36
2022-11-22T13:37:17.705Z,76.68
2022-11-22T13:42:22.836Z,76.74
2022-11-22T13:47:38.680Z,76.87
2022-11-22T13:52:52.886Z,76.92
2022-11-22T13:57:55.743Z,77.18
2022-11-22T14:03:33.037Z,77.09
2022-11-22T14:08:37.103Z,77.45
2022-11-22T14:13:58.164Z,77.86
2022-11-22T14:19:26.625Z,77.62
2022-11-22T14:25:01.821Z,77.66
2022-11-22T14:30:21.602Z,78.15
2022-11-22T14:35:34.466Z,78.14
2022-11-22T14:40:39.487Z,78.26
2022-11-22T14:45:54.428Z,78.27
2022-11-22T14:51:06.299Z,77.95
2022-11-22T14:56:23.860Z,78.10
2022-11-22T15:01:35.282Z,78.05
2022-11-22T15:09:20.093Z,78.09
2022-11-22T15:13:03.833Z,78.36
2022-11-22T16:01:50.253Z,78.04
2022-11-22T16:06:54.252Z,78.31
2022-11-22T16:12:01.948Z,78.25
2022-11-22T16:17:30.642Z,78.13
2022-11-22T16:22:33.352Z,78.33
2022-11-22T16:27:36.119Z,78.52
2022-11-22T16:32:38.609Z,78.34
2022-11-22T16:37:48.105Z,78.79
2022-11-22T16:42:51.015Z,78.61
2022-11-22T16:48:16.586Z,78.43
2022-11-22T16:53:18.407Z,78.45
2022-11-22T16:58:23.808Z,78.57
2022-11-22T17:03:29.980Z,77.66
2022-11-22T17:08:32.568Z,77.85
2022-11-22T17:13:35.084Z,77.93
2022-11-22T17:18:39.117Z,77.88
2022-11-22T17:23:56.986Z,78.10
2022-11-22T17:29:01.459Z,78.02
2022-11-22T17:34:04.433Z,78.19
2022-11-22T17:39:10.498Z,78.14
2022-11-22T17:44:16.009Z,77.68
2022-11-22T17:49:18.494Z,77.98
2022-11-22T17:54:21.030Z,77.80
2022-11-22T17:59:23.508Z,77.53
2022-11-22T18:04:26.031Z,77.57
2022-11-22T18:09:28.714Z,77.64
2022-11-22T18:14:36.646Z,77.20
2022-11-22T18:19:39.889Z,77.39
2022-11-22T18:24:42.440Z,77.45
2022-11-22T18:29:44.999Z,77.87
2022-11-22T18:34:47.614Z,77.89
2022-11-22T18:39:50.358Z,78.23
2022-11-22T18:44:53.089Z,78.18
2022-11-22T18:49:55.641Z,78.59
2022-11-22T18:54:58.103Z,78.68
2022-11-22T19:00:01.036Z,78.59
2022-11-22T19:05:05.786Z,78.63
2022-11-22T19:10:09.068Z,78.97
2022-11-22T19:15:12.255Z,79.45
2022-11-22T19:20:39.059Z,79.91
2022-11-22T19:25:37.515Z,80.49
2022-11-22T19:30:44.138Z,80.24
2022-11-22T19:36:00.396Z,80.40
2022-11-22T19:41:07.831Z,80.48
2022-11-22T19:46:11.312Z,80.66
2022-11-22T19:51:15.683Z,80.40
2022-11-22T19:56:19.855Z,80.43
2022-11-22T20:01:24.190Z,80.38
2022-11-22T20:06:27.596Z,80.13
2022-11-22T20:11:30.229Z,80.29
2022-11-22T20:16:33.099Z,80.63
2022-11-22T20:21:36.812Z,80.91
2022-11-22T20:26:39.270Z,81.01
2022-11-22T20:31:41.844Z,81.31
2022-11-22T20:36:44.388Z,81.12
2022-11-22T20:41:47.074Z,81.42
2022-11-22T20:46:49.581Z,81.45
2022-11-22T20:51:52.118Z,81.42
2022-11-22T20:56:54.947Z,80.88
2022-11-22T21:01:57.411Z,81.07
2022-11-22T21:07:00.270Z,81.00
2022-11-22T21:12:02.703Z,80.73
2022-11-22T21:17:30.571Z,80.60
2022-11-22T21:22:31.677Z,80.56
2022-11-22T21:27:35.156Z,80.83
2022-11-22T21:32:37.659Z,80.59
2022-11-22T21:37:42.105Z,80.58
2022-11-22T21:42:44.936Z,80.49
2022-11-22T21:47:49.944Z,80.58
2022-11-22T21:52:52.420Z,80.70
2022-11-22T21:57:54.919Z,80.71
2022-11-22T22:02:57.396Z,80.49
2022-11-22T22:07:59.928Z,80.51
2022-11-22T22:13:02.472Z,80.18
2022-11-22T22:18:05.013Z,80.34
2022-11-22T22:23:07.479Z,80.34
2022-11-22T22:28:09.917Z,80.46
2022-11-22T22:33:12.460Z,80.54
2022-11-22T22:38:14.947Z,80.94
2022-11-22T22:43:17.492Z,80.88
2022-11-22T22:48:21.009Z,81.04
2022-11-22T22:53:23.502Z,80.95
2022-11-22T22:58:26.215Z,81.19
2022-11-22T23:03:29.090Z,81.14
2022-11-22T23:08:31.534Z,80.99
2022-11-22T23:13:36.357Z,81.40
2022-11-22T23:18:41.275Z,81.15
2022-11-22T23:23:43.821Z,81.58
2022-11-22T23:28:46.376Z,81.17
2022-11-22T23:33:48.918Z,81.30
2022-11-22T23:38:51.973Z,81.59
2022-11-22T23:43:56.898Z,81.72
2022-11-22T23:49:01.212Z,82.01
2022-11-22T23:54:05.967Z,82.06
2022-11-22T23:59:09.891Z,81.82
